sensor_id;sensor_type;location;lat;lon;timestamp;P1;durP1;ratioP1;P2;durP2;ratioP2
21822;SDS011;11074;48.596;9.238;2023-02-26T00:00:02;2.55;;;1.48;;
21822;SDS011;11074;48.596;9.238;2023-02-26T00:02:37;3.50;;;1.30;;
21822;SDS011;11074;48.596;9.238;2023-02-26T00:05:03;2.47;;;1.30;;
21822;SDS011;11074;48.596;9.238;2023-02-26T00:07:30;6.03;;;1.48;;
21822;SDS011;11074;48.596;9.238;2023-02-26T00:09:56;2.78;;;1.30;;
21822;SDS011;11074;48.596;9.238;2023-02-26T00:12:22;2.67;;;1.23;;
21822;SDS011;11074;48.596;9.238;2023-02-26T00:14:48;4.68;;;1.65;;
21822;SDS011;11074;48.596;9.238;2023-02-26T00:20:24;2.83;;;1.52;;
21822;SDS011;11074;48.596;9.238;2023-02-26T00:22:50;3.33;;;1.30;;
21822;SDS011;11074;48.596;9.238;2023-02-26T00:25:16;4.22;;;1.80;;
21822;SDS011;11074;48.596;9.238;2023-02-26T00:27:42;4.88;;;1.60;;
21822;SDS011;11074;48.596;9.238;2023-02-26T00:30:08;3.17;;;1.58;;
21822;SDS011;11074;48.596;9.238;2023-02-26T00:32:35;2.38;;;1.35;;
21822;SDS011;11074;48.596;9.238;2023-02-26T00:35:03;3.55;;;1.80;;
21822;SDS011;11074;48.596;9.238;2023-02-26T00:37:48;2.30;;;1.27;;
21822;SDS011;11074;48.596;9.238;2023-02-26T00:40:34;4.65;;;1.45;;
21822;SDS011;11074;48.596;9.238;2023-02-26T00:43:22;5.40;;;1.30;;
21822;SDS011;11074;48.596;9.238;2023-02-26T00:51:50;2.70;;;1.48;;
21822;SDS011;11074;48.596;9.238;2023-02-26T00:54:21;4.95;;;1.40;;
21822;SDS011;11074;48.596;9.238;2023-02-26T00:56:53;4.68;;;1.33;;
21822;SDS011;11074;48.596;9.238;2023-02-26T00:59:20;4.53;;;1.70;;
21822;SDS011;11074;48.596;9.238;2023-02-26T01:01:46;5.07;;;1.60;;
21822;SDS011;11074;48.596;9.238;2023-02-26T01:04:13;3.20;;;1.40;;
21822;SDS011;11074;48.596;9.238;2023-02-26T01:06:47;6.10;;;1.65;;
21822;SDS011;11074;48.596;9.238;2023-02-26T01:09:29;4.82;;;1.73;;
21822;SDS011;11074;48.596;9.238;2023-02-26T01:11:59;3.65;;;1.80;;
21822;SDS011;11074;48.596;9.238;2023-02-26T01:14:31;5.10;;;1.80;;
21822;SDS011;11074;48.596;9.238;2023-02-26T01:17:12;3.58;;;1.73;;
21822;SDS011;11074;48.596;9.238;2023-02-26T01:19:50;4.70;;;1.60;;
21822;SDS011;11074;48.596;9.238;2023-02-26T01:22:22;3.95;;;1.50;;
21822;SDS011;11074;48.596;9.238;2023-02-26T01:25:12;3.60;;;1.67;;
21822;SDS011;11074;48.596;9.238;2023-02-26T01:27:42;2.88;;;1.50;;
21822;SDS011;11074;48.596;9.238;2023-02-26T01:30:08;3.45;;;1.70;;
21822;SDS011;11074;48.596;9.238;2023-02-26T01:32:43;2.67;;;1.50;;
21822;SDS011;11074;48.596;9.238;2023-02-26T01:38:14;3.22;;;1.50;;
21822;SDS011;11074;48.596;9.238;2023-02-26T01:47:09;3.00;;;1.52;;
21822;SDS011;11074;48.596;9.238;2023-02-26T01:49:39;4.57;;;1.95;;
21822;SDS011;11074;48.596;9.238;2023-02-26T01:52:06;3.70;;;1.70;;
21822;SDS011;11074;48.596;9.238;2023-02-26T01:55:10;3.08;;;1.67;;
21822;SDS011;11074;48.596;9.238;2023-02-26T01:57:36;5.00;;;1.80;;
21822;SDS011;11074;48.596;9.238;2023-02-26T02:00:02;3.00;;;1.60;;
21822;SDS011;11074;48.596;9.238;2023-02-26T02:02:29;2.83;;;1.42;;
21822;SDS011;11074;48.596;9.238;2023-02-26T02:04:56;3.97;;;1.80;;
21822;SDS011;11074;48.596;9.238;2023-02-26T02:07:28;3.28;;;1.65;;
21822;SDS011;11074;48.596;9.238;2023-02-26T02:09:54;6.25;;;1.90;;
21822;SDS011;11074;48.596;9.238;2023-02-26T02:12:30;3.35;;;1.65;;
21822;SDS011;11074;48.596;9.238;2023-02-26T02:21:15;4.53;;;1.85;;
21822;SDS011;11074;48.596;9.238;2023-02-26T02:23:58;4.65;;;2.03;;
21822;SDS011;11074;48.596;9.238;2023-02-26T02:26:57;3.30;;;1.75;;
21822;SDS011;11074;48.596;9.238;2023-02-26T02:33:00;3.53;;;1.80;;
21822;SDS011;11074;48.596;9.238;2023-02-26T02:35:41;4.18;;;1.90;;
21822;SDS011;11074;48.596;9.238;2023-02-26T02:38:22;3.65;;;1.75;;
21822;SDS011;11074;48.596;9.238;2023-02-26T02:40:57;3.75;;;1.70;;
21822;SDS011;11074;48.596;9.238;2023-02-26T02:43:37;6.13;;;1.65;;
21822;SDS011;11074;48.596;9.238;2023-02-26T02:46:11;4.68;;;1.90;;
21822;SDS011;11074;48.596;9.238;2023-02-26T02:52:05;5.80;;;2.28;;
21822;SDS011;11074;48.596;9.238;2023-02-26T02:54:53;3.90;;;1.70;;
21822;SDS011;11074;48.596;9.238;2023-02-26T02:57:24;5.80;;;1.95;;
21822;SDS011;11074;48.596;9.238;2023-02-26T03:00:17;4.60;;;1.67;;
21822;SDS011;11074;48.596;9.238;2023-02-26T03:02:49;3.85;;;1.70;;
21822;SDS011;11074;48.596;9.238;2023-02-26T03:08:09;4.40;;;1.65;;
21822;SDS011;11074;48.596;9.238;2023-02-26T03:10:39;3.78;;;1.80;;
21822;SDS011;11074;48.596;9.238;2023-02-26T03:13:12;4.78;;;1.92;;
21822;SDS011;11074;48.596;9.238;2023-02-26T03:18:52;2.90;;;1.60;;
21822;SDS011;11074;48.596;9.238;2023-02-26T03:21:35;4.18;;;1.60;;
21822;SDS011;11074;48.596;9.238;2023-02-26T03:27:25;4.43;;;1.77;;
21822;SDS011;11074;48.596;9.238;2023-02-26T03:30:00;3.45;;;1.60;;
21822;SDS011;11074;48.596;9.238;2023-02-26T03:32:45;4.78;;;1.52;;
21822;SDS011;11074;48.596;9.238;2023-02-26T03:35:48;3.85;;;1.73;;
21822;SDS011;11074;48.596;9.238;2023-02-26T03:38:43;3.95;;;1.90;;
21822;SDS011;11074;48.596;9.238;2023-02-26T03:41:20;5.88;;;1.58;;
21822;SDS011;11074;48.596;9.238;2023-02-26T03:43:59;4.38;;;1.90;;
21822;SDS011;11074;48.596;9.238;2023-02-26T03:46:38;4.50;;;1.83;;
21822;SDS011;11074;48.596;9.238;2023-02-26T03:49:13;3.90;;;1.63;;
21822;SDS011;11074;48.596;9.238;2023-02-26T03:51:58;4.65;;;1.80;;
21822;SDS011;11074;48.596;9.238;2023-02-26T03:54:38;3.90;;;1.60;;
21822;SDS011;11074;48.596;9.238;2023-02-26T03:57:19;4.70;;;1.70;;
21822;SDS011;11074;48.596;9.238;2023-02-26T03:59:45;4.22;;;1.58;;
21822;SDS011;11074;48.596;9.238;2023-02-26T04:02:12;3.15;;;1.63;;
21822;SDS011;11074;48.596;9.238;2023-02-26T04:05:04;4.32;;;1.80;;
21822;SDS011;11074;48.596;9.238;2023-02-26T04:07:38;4.82;;;1.77;;
21822;SDS011;11074;48.596;9.238;2023-02-26T04:10:05;4.75;;;1.52;;
21822;SDS011;11074;48.596;9.238;2023-02-26T04:12:34;6.90;;;2.00;;
21822;SDS011;11074;48.596;9.238;2023-02-26T04:14:59;5.45;;;2.10;;
21822;SDS011;11074;48.596;9.238;2023-02-26T04:17:25;5.57;;;1.50;;
21822;SDS011;11074;48.596;9.238;2023-02-26T04:19:51;3.47;;;1.80;;
21822;SDS011;11074;48.596;9.238;2023-02-26T04:22:17;5.40;;;1.80;;
21822;SDS011;11074;48.596;9.238;2023-02-26T04:24:43;4.43;;;1.60;;
21822;SDS011;11074;48.596;9.238;2023-02-26T04:27:08;5.13;;;2.10;;
21822;SDS011;11074;48.596;9.238;2023-02-26T04:29:34;4.47;;;1.95;;
21822;SDS011;11074;48.596;9.238;2023-02-26T04:31:59;4.03;;;1.63;;
21822;SDS011;11074;48.596;9.238;2023-02-26T04:34:25;5.57;;;1.70;;
21822;SDS011;11074;48.596;9.238;2023-02-26T04:36:51;4.35;;;1.80;;
21822;SDS011;11074;48.596;9.238;2023-02-26T04:39:17;3.45;;;1.67;;
21822;SDS011;11074;48.596;9.238;2023-02-26T04:41:43;5.05;;;1.67;;
21822;SDS011;11074;48.596;9.238;2023-02-26T04:44:09;5.22;;;1.95;;
21822;SDS011;11074;48.596;9.238;2023-02-26T04:46:35;4.03;;;1.77;;
21822;SDS011;11074;48.596;9.238;2023-02-26T04:49:00;3.90;;;2.10;;
21822;SDS011;11074;48.596;9.238;2023-02-26T04:51:26;2.90;;;1.77;;
21822;SDS011;11074;48.596;9.238;2023-02-26T04:53:52;5.35;;;1.80;;
21822;SDS011;11074;48.596;9.238;2023-02-26T04:56:18;5.00;;;1.63;;
21822;SDS011;11074;48.596;9.238;2023-02-26T04:58:43;6.57;;;1.80;;
21822;SDS011;11074;48.596;9.238;2023-02-26T05:01:09;5.88;;;1.75;;
21822;SDS011;11074;48.596;9.238;2023-02-26T05:03:37;4.35;;;1.60;;
21822;SDS011;11074;48.596;9.238;2023-02-26T05:06:03;5.35;;;1.75;;
21822;SDS011;11074;48.596;9.238;2023-02-26T05:08:29;3.72;;;1.75;;
21822;SDS011;11074;48.596;9.238;2023-02-26T05:10:55;5.70;;;2.00;;
21822;SDS011;11074;48.596;9.238;2023-02-26T05:13:21;4.18;;;1.70;;
21822;SDS011;11074;48.596;9.238;2023-02-26T05:15:46;4.07;;;1.73;;
21822;SDS011;11074;48.596;9.238;2023-02-26T05:18:12;4.35;;;1.48;;
21822;SDS011;11074;48.596;9.238;2023-02-26T05:20:38;4.60;;;1.90;;
21822;SDS011;11074;48.596;9.238;2023-02-26T05:23:03;5.32;;;1.45;;
21822;SDS011;11074;48.596;9.238;2023-02-26T05:25:29;6.55;;;1.98;;
21822;SDS011;11074;48.596;9.238;2023-02-26T05:27:55;5.50;;;1.80;;
21822;SDS011;11074;48.596;9.238;2023-02-26T05:30:20;4.65;;;2.13;;
21822;SDS011;11074;48.596;9.238;2023-02-26T05:32:46;4.18;;;2.00;;
21822;SDS011;11074;48.596;9.238;2023-02-26T05:35:12;3.55;;;1.67;;
21822;SDS011;11074;48.596;9.238;2023-02-26T05:37:39;4.50;;;1.73;;
21822;SDS011;11074;48.596;9.238;2023-02-26T05:40:05;5.13;;;1.80;;
21822;SDS011;11074;48.596;9.238;2023-02-26T05:42:34;4.75;;;1.90;;
21822;SDS011;11074;48.596;9.238;2023-02-26T05:45:01;3.28;;;1.90;;
21822;SDS011;11074;48.596;9.238;2023-02-26T05:47:30;2.35;;;1.38;;
21822;SDS011;11074;48.596;9.238;2023-02-26T05:49:57;5.68;;;2.45;;
21822;SDS011;11074;48.596;9.238;2023-02-26T05:52:23;10.95;;;5.03;;
21822;SDS011;11074;48.596;9.238;2023-02-26T05:54:49;11.18;;;5.43;;
21822;SDS011;11074;48.596;9.238;2023-02-26T05:57:14;7.82;;;3.90;;
21822;SDS011;11074;48.596;9.238;2023-02-26T05:59:40;6.43;;;3.60;;
21822;SDS011;11074;48.596;9.238;2023-02-26T06:02:05;7.18;;;3.60;;
21822;SDS011;11074;48.596;9.238;2023-02-26T06:04:31;5.90;;;2.80;;
21822;SDS011;11074;48.596;9.238;2023-02-26T06:06:57;7.22;;;2.47;;
21822;SDS011;11074;48.596;9.238;2023-02-26T06:09:23;5.57;;;2.35;;
21822;SDS011;11074;48.596;9.238;2023-02-26T06:11:49;5.15;;;3.17;;
21822;SDS011;11074;48.596;9.238;2023-02-26T06:14:14;6.40;;;3.35;;
21822;SDS011;11074;48.596;9.238;2023-02-26T06:16:40;6.65;;;2.85;;
21822;SDS011;11074;48.596;9.238;2023-02-26T06:19:06;5.90;;;2.78;;
21822;SDS011;11074;48.596;9.238;2023-02-26T06:21:31;5.18;;;2.60;;
21822;SDS011;11074;48.596;9.238;2023-02-26T06:23:57;6.57;;;3.00;;
21822;SDS011;11074;48.596;9.238;2023-02-26T06:26:23;4.68;;;2.35;;
21822;SDS011;11074;48.596;9.238;2023-02-26T06:28:48;8.30;;;2.35;;
21822;SDS011;11074;48.596;9.238;2023-02-26T06:31:14;5.00;;;2.15;;
21822;SDS011;11074;48.596;9.238;2023-02-26T06:33:40;8.85;;;2.53;;
21822;SDS011;11074;48.596;9.238;2023-02-26T06:36:05;4.07;;;1.80;;
21822;SDS011;11074;48.596;9.238;2023-02-26T06:38:32;4.78;;;2.30;;
21822;SDS011;11074;48.596;9.238;2023-02-26T06:40:58;4.40;;;2.10;;
21822;SDS011;11074;48.596;9.238;2023-02-26T06:43:23;5.90;;;2.20;;
21822;SDS011;11074;48.596;9.238;2023-02-26T06:45:49;7.78;;;3.90;;
21822;SDS011;11074;48.596;9.238;2023-02-26T06:48:15;9.48;;;4.30;;
21822;SDS011;11074;48.596;9.238;2023-02-26T06:50:41;5.97;;;3.40;;
21822;SDS011;11074;48.596;9.238;2023-02-26T06:53:06;8.32;;;2.72;;
21822;SDS011;11074;48.596;9.238;2023-02-26T06:55:32;7.60;;;3.63;;
21822;SDS011;11074;48.596;9.238;2023-02-26T06:57:58;6.78;;;3.70;;
21822;SDS011;11074;48.596;9.238;2023-02-26T07:00:24;4.55;;;2.65;;
21822;SDS011;11074;48.596;9.238;2023-02-26T07:02:50;5.15;;;2.92;;
21822;SDS011;11074;48.596;9.238;2023-02-26T07:05:16;3.95;;;2.05;;
21822;SDS011;11074;48.596;9.238;2023-02-26T07:07:43;17.10;;;7.47;;
21822;SDS011;11074;48.596;9.238;2023-02-26T07:10:10;12.00;;;6.85;;
21822;SDS011;11074;48.596;9.238;2023-02-26T07:12:37;10.10;;;5.40;;
21822;SDS011;11074;48.596;9.238;2023-02-26T07:15:04;10.60;;;5.05;;
21822;SDS011;11074;48.596;9.238;2023-02-26T07:17:31;9.98;;;5.72;;
21822;SDS011;11074;48.596;9.238;2023-02-26T07:19:57;6.28;;;3.85;;
21822;SDS011;11074;48.596;9.238;2023-02-26T07:22:23;9.98;;;3.63;;
21822;SDS011;11074;48.596;9.238;2023-02-26T07:24:48;8.93;;;3.92;;
21822;SDS011;11074;48.596;9.238;2023-02-26T07:27:15;7.68;;;3.35;;
21822;SDS011;11074;48.596;9.238;2023-02-26T07:29:40;5.18;;;2.97;;
21822;SDS011;11074;48.596;9.238;2023-02-26T07:32:06;5.88;;;2.10;;
21822;SDS011;11074;48.596;9.238;2023-02-26T07:34:32;6.47;;;3.10;;
21822;SDS011;11074;48.596;9.238;2023-02-26T07:36:58;8.20;;;4.45;;
21822;SDS011;11074;48.596;9.238;2023-02-26T07:39:24;6.72;;;3.60;;
21822;SDS011;11074;48.596;9.238;2023-02-26T07:41:51;7.40;;;2.72;;
21822;SDS011;11074;48.596;9.238;2023-02-26T07:44:17;6.63;;;2.88;;
21822;SDS011;11074;48.596;9.238;2023-02-26T07:46:43;9.15;;;4.90;;
21822;SDS011;11074;48.596;9.238;2023-02-26T07:49:09;8.73;;;4.22;;
21822;SDS011;11074;48.596;9.238;2023-02-26T07:51:35;7.32;;;3.30;;
21822;SDS011;11074;48.596;9.238;2023-02-26T07:54:01;6.88;;;3.10;;
21822;SDS011;11074;48.596;9.238;2023-02-26T07:56:27;3.38;;;2.00;;
21822;SDS011;11074;48.596;9.238;2023-02-26T07:58:52;6.03;;;2.40;;
21822;SDS011;11074;48.596;9.238;2023-02-26T08:01:18;5.55;;;2.00;;
21822;SDS011;11074;48.596;9.238;2023-02-26T08:03:44;4.32;;;1.83;;
21822;SDS011;11074;48.596;9.238;2023-02-26T08:06:09;3.58;;;2.15;;
21822;SDS011;11074;48.596;9.238;2023-02-26T08:08:35;5.82;;;2.47;;
21822;SDS011;11074;48.596;9.238;2023-02-26T08:11:01;7.72;;;3.95;;
21822;SDS011;11074;48.596;9.238;2023-02-26T08:13:27;5.78;;;2.95;;
21822;SDS011;11074;48.596;9.238;2023-02-26T08:15:52;6.78;;;2.45;;
21822;SDS011;11074;48.596;9.238;2023-02-26T08:18:18;6.80;;;3.03;;
21822;SDS011;11074;48.596;9.238;2023-02-26T08:20:44;6.47;;;3.00;;
21822;SDS011;11074;48.596;9.238;2023-02-26T08:23:10;6.30;;;2.28;;
21822;SDS011;11074;48.596;9.238;2023-02-26T08:25:36;4.68;;;2.08;;
21822;SDS011;11074;48.596;9.238;2023-02-26T08:28:02;2.95;;;1.63;;
21822;SDS011;11074;48.596;9.238;2023-02-26T08:30:29;5.57;;;1.90;;
21822;SDS011;11074;48.596;9.238;2023-02-26T08:32:55;4.30;;;1.77;;
21822;SDS011;11074;48.596;9.238;2023-02-26T08:35:21;4.05;;;1.85;;
21822;SDS011;11074;48.596;9.238;2023-02-26T08:37:47;3.97;;;1.80;;
21822;SDS011;11074;48.596;9.238;2023-02-26T08:40:12;4.28;;;1.60;;
21822;SDS011;11074;48.596;9.238;2023-02-26T08:42:38;3.80;;;1.63;;
21822;SDS011;11074;48.596;9.238;2023-02-26T08:45:04;5.80;;;1.88;;
21822;SDS011;11074;48.596;9.238;2023-02-26T08:47:31;5.28;;;2.35;;
21822;SDS011;11074;48.596;9.238;2023-02-26T08:49:56;23.73;;;8.13;;
21822;SDS011;11074;48.596;9.238;2023-02-26T08:52:22;14.98;;;6.40;;
21822;SDS011;11074;48.596;9.238;2023-02-26T08:54:48;5.68;;;2.25;;
21822;SDS011;11074;48.596;9.238;2023-02-26T08:57:15;14.13;;;4.43;;
21822;SDS011;11074;48.596;9.238;2023-02-26T08:59:42;6.57;;;3.10;;
21822;SDS011;11074;48.596;9.238;2023-02-26T09:02:09;7.53;;;3.08;;
21822;SDS011;11074;48.596;9.238;2023-02-26T09:04:36;7.13;;;3.20;;
21822;SDS011;11074;48.596;9.238;2023-02-26T09:07:02;5.65;;;2.55;;
21822;SDS011;11074;48.596;9.238;2023-02-26T09:09:28;7.55;;;2.72;;
21822;SDS011;11074;48.596;9.238;2023-02-26T09:11:53;11.20;;;4.88;;
21822;SDS011;11074;48.596;9.238;2023-02-26T09:14:19;6.28;;;3.08;;
21822;SDS011;11074;48.596;9.238;2023-02-26T09:16:45;4.63;;;2.60;;
21822;SDS011;11074;48.596;9.238;2023-02-26T09:19:10;5.60;;;2.42;;
21822;SDS011;11074;48.596;9.238;2023-02-26T09:21:36;5.40;;;2.83;;
21822;SDS011;11074;48.596;9.238;2023-02-26T09:24:02;5.53;;;2.65;;
21822;SDS011;11074;48.596;9.238;2023-02-26T09:26:28;3.97;;;2.10;;
21822;SDS011;11074;48.596;9.238;2023-02-26T09:28:53;4.82;;;1.90;;
21822;SDS011;11074;48.596;9.238;2023-02-26T09:31:19;4.60;;;2.00;;
21822;SDS011;11074;48.596;9.238;2023-02-26T09:33:45;4.97;;;2.15;;
21822;SDS011;11074;48.596;9.238;2023-02-26T09:36:10;5.50;;;2.05;;
21822;SDS011;11074;48.596;9.238;2023-02-26T09:38:36;5.13;;;1.90;;
21822;SDS011;11074;48.596;9.238;2023-02-26T09:41:04;3.90;;;1.90;;
21822;SDS011;11074;48.596;9.238;2023-02-26T09:49:27;5.90;;;1.48;;
21822;SDS011;11074;48.596;9.238;2023-02-26T09:52:36;3.67;;;1.73;;
21822;SDS011;11074;48.596;9.238;2023-02-26T09:55:35;4.60;;;1.92;;
21822;SDS011;11074;48.596;9.238;2023-02-26T09:58:13;4.65;;;1.80;;
21822;SDS011;11074;48.596;9.238;2023-02-26T10:09:46;3.40;;;1.67;;
21822;SDS011;11074;48.596;9.238;2023-02-26T10:12:33;2.50;;;1.50;;
21822;SDS011;11074;48.596;9.238;2023-02-26T10:15:20;2.50;;;1.50;;
21822;SDS011;11074;48.596;9.238;2023-02-26T10:17:56;3.20;;;1.55;;
21822;SDS011;11074;48.596;9.238;2023-02-26T10:34:44;3.22;;;1.40;;
21822;SDS011;11074;48.596;9.238;2023-02-26T10:37:20;3.63;;;1.30;;
21822;SDS011;11074;48.596;9.238;2023-02-26T10:40:13;3.88;;;1.50;;
21822;SDS011;11074;48.596;9.238;2023-02-26T10:51:22;3.95;;;1.70;;
21822;SDS011;11074;48.596;9.238;2023-02-26T10:54:00;3.67;;;1.58;;
21822;SDS011;11074;48.596;9.238;2023-02-26T10:56:42;7.03;;;1.40;;
21822;SDS011;11074;48.596;9.238;2023-02-26T10:59:08;3.63;;;1.10;;
21822;SDS011;11074;48.596;9.238;2023-02-26T11:01:33;2.78;;;1.70;;
21822;SDS011;11074;48.596;9.238;2023-02-26T11:04:02;2.22;;;1.27;;
21822;SDS011;11074;48.596;9.238;2023-02-26T11:06:41;2.22;;;1.10;;
21822;SDS011;11074;48.596;9.238;2023-02-26T11:09:24;2.85;;;1.08;;
21822;SDS011;11074;48.596;9.238;2023-02-26T11:14:41;3.15;;;1.15;;
21822;SDS011;11074;48.596;9.238;2023-02-26T11:19:58;2.08;;;1.20;;
21822;SDS011;11074;48.596;9.238;2023-02-26T11:22:31;3.08;;;1.05;;
21822;SDS011;11074;48.596;9.238;2023-02-26T11:25:00;2.90;;;1.45;;
21822;SDS011;11074;48.596;9.238;2023-02-26T11:27:34;2.92;;;1.10;;
21822;SDS011;11074;48.596;9.238;2023-02-26T11:30:04;4.05;;;1.27;;
21822;SDS011;11074;48.596;9.238;2023-02-26T11:32:42;3.30;;;1.90;;
21822;SDS011;11074;48.596;9.238;2023-02-26T11:35:12;3.20;;;2.03;;
21822;SDS011;11074;48.596;9.238;2023-02-26T11:37:41;2.45;;;1.40;;
21822;SDS011;11074;48.596;9.238;2023-02-26T11:40:14;3.45;;;1.60;;
21822;SDS011;11074;48.596;9.238;2023-02-26T11:42:54;1.83;;;1.40;;
21822;SDS011;11074;48.596;9.238;2023-02-26T11:45:23;2.90;;;1.73;;
21822;SDS011;11074;48.596;9.238;2023-02-26T11:47:55;1.60;;;1.17;;
21822;SDS011;11074;48.596;9.238;2023-02-26T11:50:26;3.13;;;2.00;;
21822;SDS011;11074;48.596;9.238;2023-02-26T11:53:03;3.08;;;1.55;;
21822;SDS011;11074;48.596;9.238;2023-02-26T11:55:36;3.28;;;1.10;;
21822;SDS011;11074;48.596;9.238;2023-02-26T11:58:19;3.60;;;1.40;;
21822;SDS011;11074;48.596;9.238;2023-02-26T12:00:50;3.45;;;1.60;;
21822;SDS011;11074;48.596;9.238;2023-02-26T12:03:22;2.47;;;1.40;;
21822;SDS011;11074;48.596;9.238;2023-02-26T12:05:52;5.68;;;1.45;;
21822;SDS011;11074;48.596;9.238;2023-02-26T12:08:22;2.45;;;1.33;;
21822;SDS011;11074;48.596;9.238;2023-02-26T12:13:45;3.00;;;1.50;;
21822;SDS011;11074;48.596;9.238;2023-02-26T12:19:48;2.50;;;1.13;;
21822;SDS011;11074;48.596;9.238;2023-02-26T12:25:54;2.90;;;1.50;;
21822;SDS011;11074;48.596;9.238;2023-02-26T12:29:03;2.45;;;1.20;;
21822;SDS011;11074;48.596;9.238;2023-02-26T12:31:45;2.08;;;1.30;;
21822;SDS011;11074;48.596;9.238;2023-02-26T12:37:49;2.15;;;1.40;;
21822;SDS011;11074;48.596;9.238;2023-02-26T12:40:27;1.60;;;1.20;;
21822;SDS011;11074;48.596;9.238;2023-02-26T12:52:29;3.30;;;1.70;;
21822;SDS011;11074;48.596;9.238;2023-02-26T12:58:13;3.03;;;1.83;;
21822;SDS011;11074;48.596;9.238;2023-02-26T13:01:00;3.83;;;1.40;;
21822;SDS011;11074;48.596;9.238;2023-02-26T13:09:24;3.05;;;1.67;;
21822;SDS011;11074;48.596;9.238;2023-02-26T13:12:26;3.00;;;1.70;;
21822;SDS011;11074;48.596;9.238;2023-02-26T13:20:53;3.83;;;1.50;;
21822;SDS011;11074;48.596;9.238;2023-02-26T13:23:32;2.33;;;1.40;;
21822;SDS011;11074;48.596;9.238;2023-02-26T13:26:10;2.70;;;1.70;;
21822;SDS011;11074;48.596;9.238;2023-02-26T13:31:11;4.43;;;2.25;;
21822;SDS011;11074;48.596;9.238;2023-02-26T13:33:52;2.97;;;1.70;;
21822;SDS011;11074;48.596;9.238;2023-02-26T13:36:23;6.00;;;3.40;;
21822;SDS011;11074;48.596;9.238;2023-02-26T13:41:57;3.35;;;1.30;;
21822;SDS011;11074;48.596;9.238;2023-02-26T13:47:16;2.58;;;1.10;;
21822;SDS011;11074;48.596;9.238;2023-02-26T13:55:51;3.97;;;1.60;;
21822;SDS011;11074;48.596;9.238;2023-02-26T14:00:56;1.50;;;1.02;;
21822;SDS011;11074;48.596;9.238;2023-02-26T14:03:49;1.80;;;1.00;;
21822;SDS011;11074;48.596;9.238;2023-02-26T14:07:09;1.63;;;0.90;;
21822;SDS011;11074;48.596;9.238;2023-02-26T14:09:45;1.98;;;1.00;;
21822;SDS011;11074;48.596;9.238;2023-02-26T14:12:35;1.73;;;0.70;;
21822;SDS011;11074;48.596;9.238;2023-02-26T14:17:49;2.53;;;0.90;;
21822;SDS011;11074;48.596;9.238;2023-02-26T14:20:28;1.40;;;0.80;;
21822;SDS011;11074;48.596;9.238;2023-02-26T14:28:40;2.23;;;0.70;;
21822;SDS011;11074;48.596;9.238;2023-02-26T14:36:47;0.70;;;0.55;;
21822;SDS011;11074;48.596;9.238;2023-02-26T14:39:28;2.17;;;0.75;;
21822;SDS011;11074;48.596;9.238;2023-02-26T14:42:07;1.33;;;0.57;;
21822;SDS011;11074;48.596;9.238;2023-02-26T14:44:41;2.28;;;0.73;;
21822;SDS011;11074;48.596;9.238;2023-02-26T14:47:12;1.77;;;0.60;;
21822;SDS011;11074;48.596;9.238;2023-02-26T14:49:40;1.65;;;0.65;;
21822;SDS011;11074;48.596;9.238;2023-02-26T14:54:54;0.93;;;0.45;;
21822;SDS011;11074;48.596;9.238;2023-02-26T14:58:05;1.27;;;0.70;;
21822;SDS011;11074;48.596;9.238;2023-02-26T15:01:07;1.20;;;0.52;;
21822;SDS011;11074;48.596;9.238;2023-02-26T15:15:20;2.85;;;0.65;;
21822;SDS011;11074;48.596;9.238;2023-02-26T15:24:10;0.98;;;0.47;;
21822;SDS011;11074;48.596;9.238;2023-02-26T15:26:42;0.70;;;0.55;;
21822;SDS011;11074;48.596;9.238;2023-02-26T15:29:20;1.27;;;0.60;;
21822;SDS011;11074;48.596;9.238;2023-02-26T15:31:54;0.88;;;0.65;;
21822;SDS011;11074;48.596;9.238;2023-02-26T15:34:25;1.40;;;0.70;;
21822;SDS011;11074;48.596;9.238;2023-02-26T15:36:51;0.98;;;0.70;;
21822;SDS011;11074;48.596;9.238;2023-02-26T15:39:18;1.20;;;0.60;;
21822;SDS011;11074;48.596;9.238;2023-02-26T15:41:48;1.50;;;0.60;;
21822;SDS011;11074;48.596;9.238;2023-02-26T15:44:22;1.02;;;0.55;;
21822;SDS011;11074;48.596;9.238;2023-02-26T15:46:58;1.35;;;0.60;;
21822;SDS011;11074;48.596;9.238;2023-02-26T15:49:35;1.57;;;0.70;;
21822;SDS011;11074;48.596;9.238;2023-02-26T15:52:05;1.45;;;0.77;;
21822;SDS011;11074;48.596;9.238;2023-02-26T15:54:38;2.30;;;0.60;;
21822;SDS011;11074;48.596;9.238;2023-02-26T15:57:09;2.00;;;0.70;;
21822;SDS011;11074;48.596;9.238;2023-02-26T15:59:41;1.50;;;0.80;;
21822;SDS011;11074;48.596;9.238;2023-02-26T16:04:43;1.30;;;0.68;;
21822;SDS011;11074;48.596;9.238;2023-02-26T16:07:10;1.55;;;0.88;;
21822;SDS011;11074;48.596;9.238;2023-02-26T16:09:38;1.55;;;0.85;;
21822;SDS011;11074;48.596;9.238;2023-02-26T16:12:11;2.05;;;0.90;;
21822;SDS011;11074;48.596;9.238;2023-02-26T16:14:44;1.92;;;0.90;;
21822;SDS011;11074;48.596;9.238;2023-02-26T16:17:32;2.05;;;1.02;;
21822;SDS011;11074;48.596;9.238;2023-02-26T16:20:04;1.58;;;0.85;;
21822;SDS011;11074;48.596;9.238;2023-02-26T16:22:45;2.88;;;1.38;;
21822;SDS011;11074;48.596;9.238;2023-02-26T16:28:15;6.53;;;4.25;;
21822;SDS011;11074;48.596;9.238;2023-02-26T16:30:52;6.88;;;3.70;;
21822;SDS011;11074;48.596;9.238;2023-02-26T16:33:22;8.10;;;3.40;;
21822;SDS011;11074;48.596;9.238;2023-02-26T16:36:02;6.18;;;2.60;;
21822;SDS011;11074;48.596;9.238;2023-02-26T16:38:44;4.88;;;2.05;;
21822;SDS011;11074;48.596;9.238;2023-02-26T16:41:13;5.22;;;2.40;;
21822;SDS011;11074;48.596;9.238;2023-02-26T16:43:50;5.22;;;2.10;;
21822;SDS011;11074;48.596;9.238;2023-02-26T16:46:29;2.25;;;1.30;;
21822;SDS011;11074;48.596;9.238;2023-02-26T16:48:59;2.60;;;1.10;;
21822;SDS011;11074;48.596;9.238;2023-02-26T16:51:35;2.17;;;1.15;;
21822;SDS011;11074;48.596;9.238;2023-02-26T16:54:12;2.58;;;1.50;;
21822;SDS011;11074;48.596;9.238;2023-02-26T16:56:47;2.33;;;1.05;;
21822;SDS011;11074;48.596;9.238;2023-02-26T16:59:24;1.88;;;0.80;;
21822;SDS011;11074;48.596;9.238;2023-02-26T17:01:59;2.83;;;1.42;;
21822;SDS011;11074;48.596;9.238;2023-02-26T17:04:38;4.75;;;2.80;;
21822;SDS011;11074;48.596;9.238;2023-02-26T17:07:08;3.38;;;1.60;;
21822;SDS011;11074;48.596;9.238;2023-02-26T17:09:58;3.55;;;1.25;;
21822;SDS011;11074;48.596;9.238;2023-02-26T17:12:44;3.25;;;1.48;;
21822;SDS011;11074;48.596;9.238;2023-02-26T17:15:29;4.35;;;2.30;;
21822;SDS011;11074;48.596;9.238;2023-02-26T17:17:59;5.18;;;2.20;;
21822;SDS011;11074;48.596;9.238;2023-02-26T17:20:26;3.92;;;2.00;;
21822;SDS011;11074;48.596;9.238;2023-02-26T17:22:54;4.72;;;2.65;;
21822;SDS011;11074;48.596;9.238;2023-02-26T17:25:25;5.15;;;2.40;;
21822;SDS011;11074;48.596;9.238;2023-02-26T17:28:08;4.50;;;2.45;;
21822;SDS011;11074;48.596;9.238;2023-02-26T17:30:41;6.25;;;3.22;;
21822;SDS011;11074;48.596;9.238;2023-02-26T17:33:08;6.90;;;4.18;;
21822;SDS011;11074;48.596;9.238;2023-02-26T17:35:37;5.45;;;2.70;;
21822;SDS011;11074;48.596;9.238;2023-02-26T17:38:03;3.92;;;2.08;;
21822;SDS011;11074;48.596;9.238;2023-02-26T17:40:32;3.53;;;1.77;;
21822;SDS011;11074;48.596;9.238;2023-02-26T17:43:02;2.92;;;1.38;;
21822;SDS011;11074;48.596;9.238;2023-02-26T17:45:29;3.33;;;1.15;;
21822;SDS011;11074;48.596;9.238;2023-02-26T17:47:56;2.25;;;1.20;;
21822;SDS011;11074;48.596;9.238;2023-02-26T17:53:13;1.35;;;0.80;;
21822;SDS011;11074;48.596;9.238;2023-02-26T17:55:41;1.25;;;0.70;;
21822;SDS011;11074;48.596;9.238;2023-02-26T17:58:41;1.80;;;0.90;;
21822;SDS011;11074;48.596;9.238;2023-02-26T18:01:00;1.40;;;0.73;;
21822;SDS011;11074;48.596;9.238;2023-02-26T18:03:28;2.10;;;0.70;;
21822;SDS011;11074;48.596;9.238;2023-02-26T18:05:54;2.25;;;1.00;;
21822;SDS011;11074;48.596;9.238;2023-02-26T18:08:26;1.48;;;0.65;;
21822;SDS011;11074;48.596;9.238;2023-02-26T18:10:54;1.40;;;0.70;;
21822;SDS011;11074;48.596;9.238;2023-02-26T18:13:23;1.73;;;0.98;;
21822;SDS011;11074;48.596;9.238;2023-02-26T18:16:00;1.98;;;0.82;;